createdAt,value
2023-02-15T00:00:55.254Z,32.50
2023-02-15T00:03:26.304Z,27.53
2023-02-15T00:05:59.991Z,25.63
2023-02-15T00:08:27.594Z,33.07
2023-02-15T00:11:08.343Z,57.40
2023-02-15T00:13:36.460Z,31.50
2023-02-15T00:16:04.639Z,33.30
2023-02-15T00:18:33.707Z,38.20
2023-02-15T00:21:06.369Z,31.77
2023-02-15T00:23:35.181Z,25.23
2023-02-15T00:26:11.884Z,46.50
2023-02-15T00:28:38.423Z,55.00
2023-02-15T00:31:10.254Z,45.67
2023-02-15T00:33:40.081Z,33.00
2023-02-15T00:36:10.450Z,39.97
2023-02-15T00:38:44.464Z,40.73
2023-02-15T00:41:15.558Z,47.23
2023-02-15T00:43:45.946Z,33.00
2023-02-15T00:46:16.425Z,41.30
2023-02-15T00:48:46.913Z,47.73
2023-02-15T00:51:17.511Z,33.93
2023-02-15T00:53:47.437Z,28.30
2023-02-15T00:56:21.969Z,22.20
2023-02-15T00:58:52.165Z,43.93
2023-02-15T01:01:23.695Z,32.70
2023-02-15T01:03:53.329Z,39.57
2023-02-15T01:06:23.212Z,22.37
2023-02-15T01:08:53.502Z,44.50
2023-02-15T01:11:23.746Z,60.77
2023-02-15T01:13:58.286Z,29.10
2023-02-15T01:16:28.575Z,45.53
2023-02-15T01:18:58.453Z,23.03
2023-02-15T01:21:29.534Z,33.27
2023-02-15T01:24:01.341Z,27.80
2023-02-15T01:26:30.239Z,26.97
2023-02-15T01:29:01.036Z,28.93
2023-02-15T01:31:34.097Z,22.73
2023-02-15T01:34:04.000Z,27.90
2023-02-15T01:36:34.412Z,63.67
2023-02-15T01:39:04.194Z,46.57
2023-02-15T01:41:34.675Z,31.93
2023-02-15T01:44:43.595Z,34.63
2023-02-15T01:47:23.636Z,53.23
2023-02-15T01:49:59.309Z,36.23
2023-02-15T01:52:30.337Z,36.33
2023-02-15T01:55:02.552Z,22.40
2023-02-15T01:57:34.197Z,43.27
2023-02-15T02:00:10.302Z,40.57
2023-02-15T02:02:42.780Z,58.07
2023-02-15T02:05:13.199Z,21.50
2023-02-15T02:07:42.701Z,38.47
2023-02-15T02:10:20.546Z,36.90
2023-02-15T02:12:55.067Z,31.57
2023-02-15T02:15:40.398Z,31.57
2023-02-15T02:18:27.639Z,32.43
2023-02-15T02:21:49.726Z,25.17
2023-02-15T02:24:39.378Z,30.10
2023-02-15T02:27:24.512Z,48.43
2023-02-15T02:30:25.053Z,30.90
2023-02-15T02:33:19.320Z,16.10
2023-02-15T02:36:09.220Z,33.60
2023-02-15T02:38:49.450Z,39.43
2023-02-15T02:41:44.530Z,28.57
2023-02-15T02:44:23.951Z,24.43
2023-02-15T02:47:13.358Z,22.40
2023-02-15T02:49:44.589Z,32.90
2023-02-15T02:52:38.938Z,18.30
2023-02-15T02:55:32.199Z,47.80
2023-02-15T02:58:14.932Z,12.90
2023-02-15T03:01:06.267Z,21.13
2023-02-15T03:03:39.174Z,19.67
2023-02-15T03:06:18.986Z,16.23
2023-02-15T03:09:02.042Z,25.60
2023-02-15T03:11:32.694Z,23.00
2023-02-15T03:14:03.472Z,27.10
2023-02-15T03:16:34.003Z,38.47
2023-02-15T03:19:10.017Z,31.70
2023-02-15T03:21:57.799Z,15.17
2023-02-15T03:24:27.387Z,23.60
2023-02-15T03:26:54.942Z,31.80
2023-02-15T03:29:28.296Z,17.63
2023-02-15T03:31:58.826Z,38.83
2023-02-15T03:34:25.644Z,35.13
2023-02-15T03:37:11.744Z,22.63
2023-02-15T03:39:47.212Z,15.93
2023-02-15T03:42:19.834Z,38.93
2023-02-15T03:45:00.136Z,20.60
2023-02-15T03:47:37.861Z,40.47
2023-02-15T03:50:45.696Z,20.20
2023-02-15T03:53:21.952Z,25.93
2023-02-15T03:55:55.938Z,21.23
2023-02-15T03:58:45.868Z,31.00
2023-02-15T04:01:59.944Z,24.40
2023-02-15T04:04:33.190Z,29.60
2023-02-15T04:06:59.758Z,20.70
2023-02-15T04:09:44.303Z,16.57
2023-02-15T04:12:15.751Z,26.43
2023-02-15T04:15:05.527Z,20.10
2023-02-15T04:17:31.665Z,41.43
2023-02-15T04:20:19.999Z,25.60
2023-02-15T04:23:08.876Z,18.33
2023-02-15T04:25:39.391Z,13.87
2023-02-15T04:28:10.222Z,31.63
2023-02-15T04:30:40.583Z,36.03
2023-02-15T04:33:11.600Z,20.27
2023-02-15T04:35:45.265Z,26.60
2023-02-15T04:38:15.974Z,23.17
2023-02-15T04:40:52.203Z,24.43
2023-02-15T04:43:23.255Z,20.47
2023-02-15T04:45:53.942Z,30.47
2023-02-15T04:48:29.651Z,25.70
2023-02-15T04:51:06.669Z,28.87
2023-02-15T04:53:37.414Z,42.13
2023-02-15T04:56:12.429Z,37.00
2023-02-15T04:58:43.188Z,21.53
2023-02-15T05:01:14.972Z,17.50
2023-02-15T05:03:49.729Z,21.93
2023-02-15T05:06:20.120Z,27.57
2023-02-15T05:08:51.205Z,21.97
2023-02-15T05:11:22.254Z,24.43
2023-02-15T05:13:53.008Z,19.73
2023-02-15T05:16:25.780Z,26.70
2023-02-15T05:18:57.215Z,20.50
2023-02-15T05:21:29.115Z,25.17
2023-02-15T05:23:59.750Z,15.30
2023-02-15T05:26:48.938Z,14.40
2023-02-15T05:29:15.456Z,17.43
2023-02-15T05:31:47.544Z,15.57
2023-02-15T05:34:17.103Z,27.37
2023-02-15T05:36:48.097Z,18.03
2023-02-15T05:39:19.373Z,23.53
2023-02-15T05:41:48.899Z,17.10
2023-02-15T05:44:19.209Z,27.90
2023-02-15T05:46:49.847Z,19.10
2023-02-15T05:49:20.127Z,24.00
2023-02-15T05:51:50.871Z,16.07
2023-02-15T05:54:22.240Z,18.17
2023-02-15T05:56:53.486Z,18.07
2023-02-15T05:59:24.332Z,13.27
2023-02-15T06:01:55.088Z,12.80
2023-02-15T06:04:26.872Z,19.63
2023-02-15T06:06:56.446Z,16.60
2023-02-15T06:09:26.831Z,10.70
2023-02-15T06:11:57.048Z,15.73
2023-02-15T06:14:27.651Z,12.80
2023-02-15T06:16:57.841Z,17.77
2023-02-15T06:19:28.079Z,15.77
2023-02-15T06:22:00.988Z,18.77
2023-02-15T06:24:30.819Z,13.77
2023-02-15T06:27:01.211Z,15.50
2023-02-15T06:29:32.373Z,19.13
2023-02-15T06:32:03.314Z,17.87
2023-02-15T06:34:33.559Z,16.00
2023-02-15T06:37:03.985Z,20.83
2023-02-15T06:39:37.815Z,16.47
2023-02-15T06:42:08.393Z,16.00
2023-02-15T06:44:38.706Z,17.03
2023-02-15T06:47:09.182Z,21.97
2023-02-15T06:49:39.794Z,14.53
2023-02-15T06:52:10.055Z,21.10
2023-02-15T06:54:40.371Z,17.07
2023-02-15T06:57:14.280Z,18.97
2023-02-15T06:59:45.107Z,20.83
2023-02-15T07:02:15.826Z,17.73
2023-02-15T07:04:46.173Z,17.23
2023-02-15T07:07:16.502Z,16.00
2023-02-15T07:09:47.053Z,16.47
2023-02-15T07:12:36.282Z,16.90
2023-02-15T07:15:07.881Z,16.97
2023-02-15T07:17:36.505Z,37.07
2023-02-15T07:20:05.253Z,24.10
2023-02-15T07:22:39.425Z,18.47
2023-02-15T07:25:07.349Z,27.93
2023-02-15T07:27:33.922Z,21.27
2023-02-15T07:30:00.594Z,18.73
2023-02-15T07:32:35.436Z,17.13
2023-02-15T07:35:04.060Z,14.40
2023-02-15T07:37:33.662Z,16.50
2023-02-15T07:40:04.912Z,14.97
2023-02-15T07:42:34.393Z,15.10
2023-02-15T07:45:05.333Z,15.00
2023-02-15T07:47:34.865Z,19.90
2023-02-15T07:50:08.527Z,17.27
2023-02-15T07:52:38.214Z,13.37
2023-02-15T07:55:09.164Z,17.97
2023-02-15T07:57:42.457Z,13.17
2023-02-15T08:00:09.586Z,13.90
2023-02-15T08:02:40.473Z,13.37
2023-02-15T08:05:10.583Z,14.73
2023-02-15T08:07:45.235Z,15.33
2023-02-15T08:10:35.208Z,31.13
2023-02-15T08:13:01.255Z,23.10
2023-02-15T08:15:31.864Z,13.77
2023-02-15T08:17:58.038Z,17.17
2023-02-15T08:20:24.222Z,14.53
2023-02-15T08:22:50.459Z,13.13
2023-02-15T08:25:25.236Z,12.20
2023-02-15T08:27:55.087Z,15.30
2023-02-15T08:30:25.868Z,13.10
2023-02-15T08:32:55.872Z,13.43
2023-02-15T08:35:26.148Z,16.03
2023-02-15T08:37:56.384Z,15.97
2023-02-15T08:40:27.099Z,15.00
2023-02-15T08:43:03.094Z,14.97
2023-02-15T08:45:33.840Z,16.00
2023-02-15T08:48:03.904Z,32.40
2023-02-15T08:50:34.293Z,15.07
2023-02-15T08:53:05.238Z,17.33
2023-02-15T08:55:35.740Z,16.30
2023-02-15T08:58:06.168Z,14.93
2023-02-15T09:00:40.149Z,14.10
2023-02-15T09:03:10.206Z,27.83
2023-02-15T09:05:41.253Z,15.47
2023-02-15T09:08:11.592Z,19.57
2023-02-15T09:10:42.076Z,18.20
2023-02-15T09:13:11.754Z,14.10
2023-02-15T09:15:41.963Z,19.00
2023-02-15T09:18:17.401Z,19.70
2023-02-15T09:20:45.620Z,17.63
2023-02-15T09:23:26.366Z,19.70
2023-02-15T09:26:09.220Z,18.00
2023-02-15T09:28:35.560Z,19.43
2023-02-15T09:31:29.128Z,15.93
2023-02-15T09:34:01.607Z,17.20
2023-02-15T09:36:33.149Z,19.10
2023-02-15T09:39:11.405Z,22.07
2023-02-15T09:41:44.820Z,10.90
2023-02-15T09:44:38.436Z,20.10
2023-02-15T09:47:45.902Z,17.93
2023-02-15T09:50:36.712Z,15.93
2023-02-15T09:53:29.949Z,21.10
2023-02-15T09:55:59.097Z,22.00
2023-02-15T09:58:55.952Z,17.73
2023-02-15T10:01:45.286Z,20.10
2023-02-15T10:04:25.023Z,19.77
2023-02-15T10:06:57.152Z,15.10
2023-02-15T10:09:30.489Z,18.07
2023-02-15T10:12:14.291Z,17.63
2023-02-15T10:15:00.506Z,22.30
2023-02-15T10:18:08.887Z,14.50
2023-02-15T10:20:58.051Z,17.20
2023-02-15T10:23:43.095Z,22.93
2023-02-15T10:26:20.705Z,20.13
2023-02-15T10:28:56.534Z,21.73
2023-02-15T10:32:14.857Z,25.43
2023-02-15T10:35:06.567Z,17.50
2023-02-15T10:38:02.783Z,21.83
2023-02-15T10:41:01.255Z,18.77
2023-02-15T10:43:45.544Z,18.00
2023-02-15T10:46:14.776Z,21.70
2023-02-15T10:48:53.096Z,20.20
2023-02-15T10:51:40.688Z,24.87
2023-02-15T10:54:14.163Z,17.90
2023-02-15T10:57:03.973Z,21.00
2023-02-15T10:59:57.739Z,14.60
2023-02-15T11:02:34.776Z,22.97
2023-02-15T11:05:19.343Z,36.30
2023-02-15T11:07:53.423Z,23.90
2023-02-15T11:11:02.354Z,20.20
2023-02-15T11:13:36.020Z,21.23
2023-02-15T11:16:17.649Z,20.80
2023-02-15T11:18:57.673Z,20.50
2023-02-15T11:21:32.846Z,15.90
2023-02-15T11:24:15.319Z,22.17
2023-02-15T11:26:58.056Z,17.87
2023-02-15T11:29:37.093Z,20.20
2023-02-15T11:32:28.888Z,21.70
2023-02-15T11:35:12.116Z,21.83
2023-02-15T11:38:02.254Z,24.60
2023-02-15T11:40:43.020Z,19.57
2023-02-15T11:43:18.284Z,18.57
2023-02-15T11:45:49.401Z,17.50
2023-02-15T11:48:19.924Z,17.37
2023-02-15T11:50:50.345Z,18.40
2023-02-15T11:53:25.104Z,14.83
2023-02-15T11:55:52.224Z,15.83
2023-02-15T11:58:42.993Z,19.83
2023-02-15T12:01:34.623Z,26.00
2023-02-15T12:04:24.659Z,15.33
2023-02-15T12:07:04.986Z,20.00
2023-02-15T12:09:41.987Z,11.60
2023-02-15T12:12:26.353Z,22.07
2023-02-15T12:14:59.044Z,17.57
2023-02-15T12:17:33.367Z,17.37
2023-02-15T12:20:07.359Z,18.50
2023-02-15T12:22:37.751Z,19.87
2023-02-15T12:25:23.602Z,17.80
2023-02-15T12:27:54.176Z,18.10
2023-02-15T12:30:34.444Z,19.83
2023-02-15T12:33:15.811Z,18.23
2023-02-15T12:35:50.043Z,16.97
2023-02-15T12:38:25.657Z,17.27
2023-02-15T12:41:00.894Z,16.37
2023-02-15T12:43:32.108Z,14.43
2023-02-15T12:46:14.895Z,18.43
2023-02-15T12:48:46.383Z,16.20
2023-02-15T12:51:15.486Z,21.57
2023-02-15T12:53:44.740Z,19.40
2023-02-15T12:56:26.748Z,19.30
2023-02-15T12:59:05.051Z,22.07
2023-02-15T13:01:32.597Z,24.27
2023-02-15T13:04:25.007Z,21.10
2023-02-15T13:07:00.595Z,25.47
2023-02-15T13:09:31.470Z,14.70
2023-02-15T13:12:18.498Z,16.73
2023-02-15T13:14:55.377Z,21.50
2023-02-15T13:17:29.775Z,24.03
2023-02-15T13:20:23.117Z,21.10
2023-02-15T13:23:06.624Z,18.20
2023-02-15T13:25:50.487Z,23.27
2023-02-15T13:28:24.803Z,26.37
2023-02-15T13:30:57.135Z,24.43
2023-02-15T13:33:33.881Z,18.13
2023-02-15T13:36:08.027Z,23.27
2023-02-15T13:38:58.451Z,20.00
2023-02-15T13:42:11.578Z,21.07
2023-02-15T13:45:01.418Z,23.53
2023-02-15T13:47:37.912Z,20.40
2023-02-15T13:50:13.791Z,23.13
2023-02-15T13:52:51.631Z,24.70
2023-02-15T13:55:37.297Z,21.13
2023-02-15T13:58:19.105Z,19.00
2023-02-15T14:01:15.998Z,25.83
2023-02-15T14:04:16.522Z,18.07
2023-02-15T14:07:27.125Z,22.70
2023-02-15T14:10:19.494Z,22.30
2023-02-15T14:13:15.509Z,19.90
2023-02-15T14:16:33.647Z,23.07
2023-02-15T14:19:09.075Z,25.73
2023-02-15T14:21:41.192Z,21.00
2023-02-15T14:24:13.318Z,27.97
2023-02-15T14:27:10.041Z,23.70
2023-02-15T14:29:45.904Z,24.80
2023-02-15T14:32:17.252Z,20.80
2023-02-15T14:34:51.094Z,27.03
2023-02-15T14:37:24.772Z,24.00
2023-02-15T14:40:51.072Z,27.40
2023-02-15T14:43:45.591Z,26.90
2023-02-15T14:46:27.013Z,27.73
2023-02-15T14:49:18.527Z,28.20
2023-02-15T14:51:56.821Z,27.63
2023-02-15T14:54:22.827Z,28.27
2023-02-15T14:57:01.142Z,28.63
2023-02-15T14:59:53.196Z,24.53
2023-02-15T15:02:23.576Z,27.77
2023-02-15T15:05:01.151Z,24.20
2023-02-15T15:07:35.211Z,25.30
2023-02-15T15:10:30.196Z,26.87
2023-02-15T15:12:57.431Z,23.77
2023-02-15T15:15:32.494Z,26.40
2023-02-15T15:18:05.597Z,29.20
2023-02-15T15:20:57.913Z,26.77
2023-02-15T15:23:44.514Z,26.67
2023-02-15T15:26:33.498Z,24.00
2023-02-15T15:29:00.960Z,30.50
2023-02-15T15:31:51.424Z,28.83
2023-02-15T15:34:32.880Z,26.43
2023-02-15T15:37:36.635Z,28.77
2023-02-15T15:40:25.464Z,26.07
2023-02-15T15:43:33.067Z,23.93
2023-02-15T15:46:07.080Z,27.93
2023-02-15T15:48:38.423Z,32.20
2023-02-15T15:51:33.444Z,27.10
2023-02-15T15:54:00.575Z,26.87
2023-02-15T15:56:31.513Z,26.50
2023-02-15T15:59:03.227Z,24.60
2023-02-15T16:01:31.649Z,31.93
2023-02-15T16:03:59.256Z,33.00
2023-02-15T16:06:29.912Z,29.63
2023-02-15T16:08:56.118Z,26.33
2023-02-15T16:11:27.656Z,28.33
2023-02-15T16:13:54.263Z,30.20
2023-02-15T16:16:22.970Z,26.97
2023-02-15T16:18:49.546Z,30.60
2023-02-15T16:21:22.023Z,26.63
2023-02-15T16:24:03.492Z,38.20
2023-02-15T16:26:54.246Z,25.93
2023-02-15T16:29:31.531Z,32.60
2023-02-15T16:32:17.584Z,30.03
2023-02-15T16:34:57.539Z,33.60
2023-02-15T16:37:27.451Z,30.67
2023-02-15T16:39:55.334Z,33.40
2023-02-15T16:42:21.951Z,29.90
2023-02-15T16:45:09.849Z,32.30
2023-02-15T16:47:41.470Z,33.45
2023-02-15T16:50:18.154Z,33.93
2023-02-15T16:52:44.622Z,34.57
2023-02-15T16:55:23.535Z,35.23
2023-02-15T16:57:49.880Z,35.33
2023-02-15T17:00:21.606Z,34.20
2023-02-15T17:03:13.955Z,34.53
2023-02-15T17:05:39.961Z,33.20
2023-02-15T17:08:14.721Z,30.03
2023-02-15T17:10:45.229Z,34.13
2023-02-15T17:13:16.173Z,33.30
2023-02-15T17:15:58.343Z,29.40
2023-02-15T17:18:25.009Z,21.77
2023-02-15T17:20:52.915Z,32.50
2023-02-15T17:23:23.251Z,29.37
2023-02-15T17:25:49.482Z,32.77
2023-02-15T17:28:20.681Z,37.97
2023-02-15T17:30:47.518Z,34.63
2023-02-15T17:33:29.261Z,35.43
2023-02-15T17:36:22.768Z,32.83
2023-02-15T17:39:05.495Z,38.30
2023-02-15T17:41:37.549Z,33.67
2023-02-15T17:44:04.272Z,38.97
2023-02-15T17:46:35.489Z,41.73
2023-02-15T17:49:01.926Z,42.67
2023-02-15T17:51:28.132Z,41.20
2023-02-15T17:54:12.715Z,45.17
2023-02-15T17:56:39.222Z,45.07
2023-02-15T17:59:06.913Z,44.67
2023-02-15T18:01:57.555Z,41.70
2023-02-15T18:04:42.778Z,39.93
2023-02-15T18:07:30.294Z,38.90
2023-02-15T18:10:14.665Z,36.90
2023-02-15T18:12:41.699Z,45.60
2023-02-15T18:15:10.270Z,41.77
2023-02-15T18:17:45.442Z,44.33
2023-02-15T18:20:17.528Z,44.73
2023-02-15T18:22:45.679Z,42.50
2023-02-15T18:25:13.731Z,37.40
2023-02-15T18:27:39.803Z,41.80
2023-02-15T18:30:07.785Z,42.20
2023-02-15T18:32:35.918Z,40.47
2023-02-15T18:35:02.974Z,35.60
2023-02-15T18:37:32.316Z,39.27
2023-02-15T18:39:59.775Z,38.97
2023-02-15T18:42:27.129Z,43.57
2023-02-15T18:44:59.621Z,42.63
2023-02-15T18:47:26.421Z,33.87
2023-02-15T18:49:52.629Z,42.00
2023-02-15T18:52:21.487Z,44.90
2023-02-15T18:54:51.174Z,43.23
2023-02-15T18:57:17.220Z,40.37
2023-02-15T18:59:43.366Z,41.97
2023-02-15T19:02:17.920Z,41.93
2023-02-15T19:04:44.871Z,45.77
2023-02-15T19:07:20.480Z,31.70
2023-02-15T19:09:49.773Z,46.20
2023-02-15T19:12:15.853Z,40.43
2023-02-15T19:14:41.943Z,46.30
2023-02-15T19:17:16.103Z,41.27
2023-02-15T19:19:42.743Z,42.40
2023-02-15T19:22:30.252Z,47.27
2023-02-15T19:24:59.138Z,46.80
2023-02-15T19:27:34.271Z,43.80
2023-02-15T19:30:03.465Z,38.30
2023-02-15T19:32:30.449Z,38.90
2023-02-15T19:34:56.841Z,41.93
2023-02-15T19:37:27.539Z,43.67
2023-02-15T19:39:53.853Z,35.00
2023-02-15T19:42:22.687Z,41.33
2023-02-15T19:44:50.139Z,49.57
2023-02-15T19:47:16.725Z,45.33
2023-02-15T19:49:42.845Z,40.87
2023-02-15T19:52:19.682Z,46.47
2023-02-15T19:54:47.437Z,39.63
2023-02-15T19:57:13.760Z,49.90
2023-02-15T19:59:40.137Z,38.70
2023-02-15T20:02:06.702Z,43.70
2023-02-15T20:04:33.001Z,43.93
2023-02-15T20:07:01.006Z,46.87
2023-02-15T20:09:32.051Z,37.30
2023-02-15T20:11:57.953Z,42.00
2023-02-15T20:14:23.792Z,44.03
2023-02-15T20:16:49.703Z,40.33
2023-02-15T20:19:15.736Z,38.63
2023-02-15T20:21:42.984Z,46.10
2023-02-15T20:24:19.845Z,42.83
2023-02-15T20:26:45.681Z,40.23
2023-02-15T20:29:17.714Z,44.00
2023-02-15T20:31:44.271Z,39.23
2023-02-15T20:34:10.596Z,29.20
2023-02-15T20:36:36.970Z,42.83
2023-02-15T20:39:12.004Z,41.43
2023-02-15T20:41:46.290Z,41.27
2023-02-15T20:44:26.320Z,47.10
2023-02-15T20:46:57.111Z,38.37
2023-02-15T20:49:24.479Z,40.77
2023-02-15T20:51:51.669Z,46.67
2023-02-15T20:54:19.366Z,38.33
2023-02-15T20:56:46.083Z,40.10
2023-02-15T20:59:33.295Z,36.30
2023-02-15T21:02:01.698Z,40.40
2023-02-15T21:04:36.638Z,42.00
2023-02-15T21:07:02.668Z,43.47
2023-02-15T21:09:28.848Z,41.30
2023-02-15T21:11:56.084Z,40.63
2023-02-15T21:14:23.662Z,38.30
2023-02-15T21:16:50.251Z,36.63
2023-02-15T21:19:19.245Z,38.87
2023-02-15T21:21:45.981Z,35.97
2023-02-15T21:24:18.611Z,42.60
2023-02-15T21:26:45.631Z,35.93
2023-02-15T21:29:19.102Z,35.50
2023-02-15T21:31:45.555Z,42.90
2023-02-15T21:34:12.105Z,38.10
2023-02-15T21:36:39.551Z,45.40
2023-02-15T21:39:05.966Z,44.10
2023-02-15T21:41:50.421Z,42.13
2023-02-15T21:44:43.670Z,45.83
2023-02-15T21:47:50.945Z,43.43
2023-02-15T21:50:37.620Z,42.57
2023-02-15T21:53:04.733Z,38.83
2023-02-15T21:55:31.226Z,41.83
2023-02-15T21:57:57.066Z,45.90
2023-02-15T22:00:24.165Z,43.90
2023-02-15T22:02:54.911Z,44.40
2023-02-15T22:05:28.476Z,41.67
2023-02-15T22:07:54.748Z,39.97
2023-02-15T22:10:22.730Z,42.03
2023-02-15T22:12:49.446Z,38.37
2023-02-15T22:15:20.231Z,48.60
2023-02-15T22:17:46.475Z,33.43
2023-02-15T22:20:19.862Z,39.70
2023-02-15T22:22:46.763Z,47.60
2023-02-15T22:25:14.861Z,33.50
2023-02-15T22:27:42.209Z,41.17
2023-02-15T22:30:28.667Z,43.10
2023-02-15T22:32:56.165Z,42.30
2023-02-15T22:35:28.263Z,40.60
2023-02-15T22:37:54.735Z,39.17
2023-02-15T22:40:21.526Z,41.77
2023-02-15T22:42:49.468Z,38.53
2023-02-15T22:45:18.034Z,42.03
2023-02-15T22:47:44.315Z,42.90
2023-02-15T22:50:21.957Z,43.90
2023-02-15T22:52:48.794Z,40.30
2023-02-15T22:55:20.988Z,40.40
2023-02-15T22:57:49.063Z,35.67
2023-02-15T23:00:17.683Z,47.30
2023-02-15T23:02:44.011Z,49.73
2023-02-15T23:05:28.426Z,47.00
2023-02-15T23:07:54.897Z,44.37
2023-02-15T23:10:22.919Z,41.20
2023-02-15T23:13:10.519Z,43.27
2023-02-15T23:15:36.987Z,43.80
2023-02-15T23:18:18.603Z,46.13
2023-02-15T23:20:46.364Z,41.97
2023-02-15T23:23:13.401Z,38.50
2023-02-15T23:25:39.808Z,38.70
2023-02-15T23:28:24.172Z,47.20
2023-02-15T23:30:50.069Z,41.03
2023-02-15T23:33:18.784Z,46.10
2023-02-15T23:35:44.656Z,46.73
2023-02-15T23:38:39.719Z,46.73
2023-02-15T23:41:20.896Z,47.33
2023-02-15T23:43:49.656Z,42.37
2023-02-15T23:46:26.885Z,48.70
2023-02-15T23:48:53.432Z,61.37
2023-02-15T23:51:21.328Z,46.50
2023-02-15T23:53:47.162Z,46.10
2023-02-15T23:56:13.444Z,41.27
2023-02-15T23:58:41.184Z,42.83
